Latest Weather Observations for Norah Head

IDN60901

Issued at 3:51 pm EST Saturday 23 May 2015 (issued every 10 minutes, with the page automatically refreshed every 10 minutes)

About weather observations | Map of Sydney area stations | Latest observations for Sydney area | Other Formats
Station Details ID: 061366 Name: NORAH HEAD AWS Lat: -33.28 Lon: 151.58 Height: 18.8 m
Data from the previous 72 hours. | See also: Recent months at Norah Head
Date/Time
EST
Tmp

°C
App
Tmp
°C
Dew
Point
°C
Rel
Hum
%
Delta-T

°C
Wind Press
QNH
hPa
Press
MSL
hPa
Rain
since
9 am
mm
Dir
 
Spd
km/h
Gust
km/h
Spd
kts
Gust
kts
23/03:30pm 16.9 12.7 12.4 75 2.5 SSW 26 41 14 22 1027.5 1027.5 0.6
23/03:00pm 16.7 11.7 12.3 75 2.4 SSW 30 41 16 22 1027.3 1027.3 0.6
23/02:30pm 16.6 11.3 12.6 77 2.2 SSW 32 46 17 25 1027.2 1027.2 0.6
23/02:00pm 16.2 13.3 12.9 81 1.8 SSW 20 39 11 21 1027.4 1027.4 0.6
23/01:30pm 14.3 13.7 11.8 85 1.3 WSW 6 7 3 4 1027.7 1027.7 0.6
23/01:00pm 15.2 13.0 12.2 82 1.6 SSW 15 24 8 13 1027.7 1027.7 0.0
23/12:30pm 16.1 12.1 11.7 75 2.4 SSW 24 33 13 18 1027.7 1027.7 0.0
23/12:00pm 16.0 11.8 11.2 73 2.6 SSW 24 33 13 18 1027.9 1027.9 0.0
23/11:30am 15.9 12.0 10.9 72 2.7 SSW 22 32 12 17 1028.3 1028.3 0.0
23/11:00am 15.6 11.3 10.8 73 2.5 SSW 24 33 13 18 1028.4 1028.4 0.0
23/10:30am 15.1 11.1 10.5 74 2.4 SSW 22 33 12 18 1028.5 1028.5 0.0
23/10:00am 15.4 11.7 11.4 77 2.1 SW 22 33 12 18 1028.4 1028.4 0.0
23/09:30am 14.8 11.3 10.8 77 2.1 SW 20 33 11 18 1028.2 1028.2 0.0
23/09:00am 14.7 9.8 11.3 80 1.8 SSW 28 39 15 21 1027.9 1027.9 24.4
23/08:30am 13.5 10.3 10.1 80 1.8 SW 17 33 9 18 1027.6 1027.6 24.4
23/08:00am 12.7 10.0 10.2 85 1.3 SW 15 24 8 13 1027.5 1027.5 24.4
23/07:30am 11.9 9.1 10.0 88 1.0 WSW 15 26 8 14 1027.2 1027.2 24.4
23/07:00am 11.8 9.6 10.7 93 0.6 WSW 13 22 7 12 1027.0 1027.0 24.4
23/06:30am 11.8 9.7 11.2 96 0.3 WSW 13 22 7 12 1026.5 1026.5 24.4
23/06:00am 11.7 10.1 11.5 99 0.1 WSW 11 20 6 11 1026.4 1026.4 24.2
23/05:30am 11.8 9.1 11.6 99 0.1 WSW 17 30 9 16 1025.8 1025.8 23.2
23/05:00am 12.6 9.7 12.3 98 0.2 SW 19 30 10 16 1025.7 1025.7 23.0
23/04:30am 12.5 10.0 12.3 99 0.1 SW 17 28 9 15 1025.6 1025.6 22.8
23/04:00am 12.3 9.7 12.1 99 0.1 SW 17 26 9 14 1025.6 1025.6 22.2
23/03:30am 12.3 10.1 12.1 99 0.1 WSW 15 24 8 13 1025.5 1025.5 21.8
23/03:00am 12.3 10.5 12.1 99 0.1 WSW 13 22 7 12 1025.5 1025.5 19.8
23/02:30am 12.6 10.1 12.3 98 0.2 WSW 17 26 9 14 1025.5 1025.5 18.4
23/02:00am 12.6 10.4 12.1 97 0.3 WSW 15 22 8 12 1025.7 1025.7 17.6
23/01:30am 12.9 10.7 12.1 95 0.4 WSW 15 22 8 12 1025.8 1025.8 17.4
23/01:00am 13.5 10.9 12.1 91 0.7 SW 17 30 9 16 1025.4 1025.4 17.4
23/12:30am 14.4 12.1 11.9 85 1.3 SW 15 30 8 16 1025.3 1025.3 17.4
23/12:05am 15.9 11.0 11.3 74 2.5 S 28 50 15 27 1025.5 1025.5 17.4
23/12:01am 17.1 9.8 10.2 64 3.7 S 39 57 21 31 1025.2 1025.2 17.4
23/12:00am 17.1 9.4 10.2 64 3.6 S 41 57 22 31 1025.2 1025.2 17.4
 
Date/Time
EST
Tmp

°C
App
Tmp
°C
Dew
Point
°C
Rel
Hum
%
Delta-T

°C
Wind Press
QNH
hPa
Press
MSL
hPa
Rain
since
9 am
mm
Dir
 
Spd
km/h
Gust
km/h
Spd
kts
Gust
kts
22/11:30pm 17.0 7.9 9.7 62 3.8 S 48 61 26 33 1024.7 1024.7 17.4
22/11:00pm 16.9 7.3 10.7 67 3.3 S 52 65 28 35 1024.7 1024.7 17.4
22/10:30pm 16.4 5.6 11.3 72 2.7 SSE 59 70 32 38 1024.2 1024.1 17.4
22/10:00pm 16.1 5.9 11.5 74 2.5 S 56 67 30 36 1024.1 1024.0 17.4
22/09:35pm 16.6 7.9 12.6 77 2.2 S 50 74 27 40 1023.7 1023.6 16.6
22/09:30pm 16.6 7.9 12.6 77 2.2 S 50 61 27 33 1023.9 1023.8 16.6
22/09:11pm 16.4 6.3 11.8 74 2.5 S 56 74 30 40 1023.7 1023.6 16.6
22/09:00pm 16.9 6.1 11.2 69 3.1 S 59 78 32 42 1023.5 1023.4 16.6
22/08:30pm 16.4 7.0 12.6 78 2.1 S 54 78 29 42 1023.1 1023.0 16.6
22/08:01pm 16.3 7.0 11.7 74 2.5 S 52 72 28 39 1023.2 1023.1 16.6
22/08:00pm 16.0 6.1 11.0 72 2.7 S 54 72 29 39 1023.2 1023.1 16.6
22/07:51pm 16.4 9.5 12.9 80 1.9 S 41 70 22 38 1023.0 1022.9 16.6
22/07:36pm 17.0 8.9 12.1 73 2.7 S 46 65 25 35 1023.3 1023.2 16.6
22/07:30pm 16.9 7.6 11.8 72 2.8 S 52 69 28 37 1022.4 1022.3 16.6
22/07:00pm 16.8 5.7 12.7 77 2.3 S 63 72 34 39 1022.0 1021.9 16.6
22/06:30pm 16.3 3.8 12.1 76 2.3 S 69 87 37 47 1021.4 1021.3 16.6
22/06:10pm 16.6 6.8 11.3 71 2.9 S 54 74 29 40 1021.5 1021.4 16.6
22/06:00pm 16.8 6.0 11.3 70 3.0 S 59 74 32 40 1021.0 1020.9 16.6
22/05:38pm 16.8 6.8 12.1 74 2.6 S 56 76 30 41 1020.9 1020.8 16.6
22/05:30pm 17.2 6.5 11.7 70 3.0 S 59 76 32 41 1020.3 1020.2 16.6
22/05:04pm 16.8 7.3 12.3 75 2.5 S 54 72 29 39 1020.4 1020.3 16.6
22/05:00pm 16.6 6.1 11.1 70 2.9 S 57 72 31 39 1020.4 1020.3 16.6
22/04:31pm 16.8 5.2 12.3 75 2.5 S 65 85 35 46 1019.5 1019.4 16.6
22/04:30pm 16.8 4.7 12.1 74 2.6 S 67 85 36 46 1019.4 1019.3 16.6
22/04:00pm 17.2 5.3 11.5 69 3.1 S 65 85 35 46 1018.6 1018.5 16.6
22/03:57pm 17.2 5.2 11.2 68 3.2 S 65 85 35 46 1018.5 1018.4 16.6
22/03:30pm 17.0 4.9 11.9 72 2.8 S 67 85 36 46 1017.8 1017.7 16.6
22/03:00pm 16.8 5.7 12.7 77 2.3 S 63 85 34 46 1017.7 1017.6 16.6
22/02:30pm 17.3 7.0 12.8 75 2.5 S 59 80 32 43 1017.2 1017.1 16.6
22/02:00pm 16.9 6.1 12.6 76 2.4 S 61 82 33 44 1016.9 1016.8 16.6
22/01:30pm 16.3 4.1 13.4 83 1.6 S 70 93 38 50 1016.5 1016.4 16.6
22/01:02pm 16.2 6.3 15.1 93 0.6 S 61 89 33 48 1016.0 1015.9 16.6
22/01:00pm 16.1 6.2 15.3 95 0.5 S 61 78 33 42 1016.1 1016.0 16.6
22/12:30pm 16.3 7.1 15.0 92 0.8 S 57 78 31 42 1015.9 1015.8 15.2
22/12:16pm 16.5 5.1 15.2 92 0.8 S 69 87 37 47 1015.2 1015.1 15.0
22/12:07pm 16.0 5.9 14.7 92 0.7 S 61 85 33 46 1015.1 1015.0 15.0
22/12:00pm 16.7 10.0 16.1 96 0.4 S 46 74 25 40 1015.4 1015.3 14.8
22/11:48am 15.7 9.8 14.7 94 0.6 S 39 61 21 33 1016.0 1015.9 14.4
22/11:30am 16.4 8.4 14.6 89 1.0 S 50 61 27 33 1016.1 1016.0 13.2
22/11:24am 16.3 7.5 14.5 89 1.0 S 54 72 29 39 1016.0 1015.9 13.0
22/11:00am 16.4 6.5 15.3 93 0.6 S 61 70 33 38 1015.7 1015.6 12.6
22/10:34am 15.9 6.2 15.6 98 0.2 S 61 85 33 46 1015.2 1015.1 11.8
22/10:30am 15.5 6.6 15.2 98 0.2 S 56 69 30 37 1015.8 1015.7 11.6
22/10:25am 15.7 7.5 15.1 96 0.3 S 52 69 28 37 1015.6 1015.5 11.0
22/10:00am 15.5 12.8 15.5 100 0.0 SSW 24 50 13 27 1016.1 1016.0 8.0
22/09:59am 15.4 13.0 15.4 100 0.0 SSW 22 50 12 27 1016.0 1015.9 7.8
22/09:30am 13.6 11.4 13.4 99 0.1 WSW 17 28 9 15 1016.1 1016.0 3.0
22/09:00am 13.5 11.1 12.7 95 0.4 WSW 17 30 9 16 1015.8 1015.7 2.4
22/08:30am 13.8 11.0 12.5 92 0.7 SW 19 30 10 16 1015.5 1015.4 0.8
22/08:00am 14.4 11.1 11.7 84 1.4 SW 20 39 11 21 1015.1 1015.0 0.2
22/07:30am 14.2 11.8 11.4 83 1.5 SW 15 30 8 16 1014.9 1014.8 0.0
22/07:00am 14.5 12.0 10.9 79 1.9 SW 15 24 8 13 1014.7 1014.6 0.0
22/06:30am 14.3 12.1 10.9 80 1.8 WSW 13 22 7 12 1014.6 1014.5 0.0
22/06:00am 14.5 12.0 10.9 79 1.9 SW 15 24 8 13 1014.7 1014.6 0.0
22/05:30am 14.4 11.7 10.4 77 2.1 WSW 15 22 8 12 1014.6 1014.5 0.0
22/05:00am 14.1 11.7 10.1 77 2.1 WSW 13 20 7 11 1014.6 1014.5 0.0
22/04:30am 14.0 11.6 10.2 78 2.0 WSW 13 19 7 10 1014.8 1014.7 0.0
22/04:00am 14.0 11.3 10.2 78 2.0 WSW 15 28 8 15 1014.7 1014.6 0.0
22/03:30am 14.0 11.4 10.6 80 1.8 WSW 15 24 8 13 1014.7 1014.6 0.0
22/03:00am 13.9 11.7 10.7 81 1.7 WSW 13 22 7 12 1015.0 1014.9 0.0
22/02:30am 14.2 12.1 11.2 82 1.6 WSW 13 22 7 12 1015.4 1015.3 0.0
22/02:00am 14.2 12.1 11.2 82 1.6 WSW 13 24 7 13 1015.6 1015.5 0.0
22/01:30am 14.5 12.1 11.5 82 1.6 WSW 15 24 8 13 1016.0 1015.9 0.0
22/01:00am 14.7 12.4 11.7 82 1.6 WSW 15 28 8 15 1016.3 1016.2 0.0
22/12:30am 14.9 13.1 12.2 84 1.5 WSW 13 24 7 13 1016.1 1016.0 0.0
22/12:00am 15.3 13.3 12.6 84 1.5 SW 15 24 8 13 1016.2 1016.1 0.0
 
Date/Time
EST
Tmp

°C
App
Tmp
°C
Dew
Point
°C
Rel
Hum
%
Delta-T

°C
Wind Press
QNH
hPa
Press
MSL
hPa
Rain
since
9 am
mm
Dir
 
Spd
km/h
Gust
km/h
Spd
kts
Gust
kts
21/11:30pm 15.2 13.5 12.5 84 1.5 WSW 13 20 7 11 1016.3 1016.2 0.0
21/11:00pm 15.6 13.7 11.8 78 2.1 WSW 13 22 7 12 1016.5 1016.4 0.0
21/10:30pm 16.2 14.2 11.4 73 2.6 SW 13 20 7 11 1016.6 1016.5 0.0
21/10:00pm 17.3 13.2 11.3 68 3.2 SSW 24 33 13 18 1016.8 1016.7 0.0
21/09:30pm 17.9 13.1 14.0 78 2.2 SSW 32 44 17 24 1016.9 1016.8 0.0
21/09:02pm 17.9 13.1 12.8 72 2.9 S 30 48 16 26 1016.7 1016.6 0.0
21/09:00pm 17.9 13.5 12.8 72 2.8 S 28 35 15 19 1016.7 1016.6 0.0
21/08:30pm 18.5 14.1 15.2 81 1.9 S 32 48 17 26 1016.5 1016.4 0.0
21/08:00pm 18.0 13.9 13.9 77 2.3 S 28 41 15 22 1016.8 1016.7 0.0
21/07:30pm 18.5 14.8 15.0 80 2.0 SSW 28 43 15 23 1017.0 1016.9 0.0
21/07:00pm 18.6 15.0 14.1 75 2.6 S 26 33 14 18 1016.8 1016.7 0.0
21/06:30pm 18.5 14.4 13.8 74 2.7 S 28 37 15 20 1016.8 1016.7 0.0
21/06:00pm 18.2 14.4 13.7 75 2.6 S 26 35 14 19 1016.5 1016.4 0.0
21/05:30pm 18.4 15.7 14.5 78 2.3 S 22 32 12 17 1016.3 1016.2 0.0
21/05:00pm 18.2 15.7 13.5 74 2.7 S 19 28 10 15 1016.5 1016.4 0.0
21/04:30pm 18.2 16.2 13.9 76 2.5 S 17 26 9 14 1016.5 1016.4 0.0
21/04:00pm 18.4 15.9 14.1 76 2.5 S 20 32 11 17 1016.6 1016.5 0.0
21/03:30pm 18.5 15.6 12.9 70 3.1 S 20 28 11 15 1016.6 1016.5 0.0
21/03:00pm 18.6 14.7 12.1 66 3.6 S 24 28 13 15 1016.4 1016.3 0.0
21/02:30pm 19.1 15.7 12.6 66 3.6 S 22 28 12 15 1016.5 1016.4 0.0
21/02:00pm 19.1 15.6 12.1 64 3.9 S 22 28 12 15 1016.5 1016.4 0.0
21/01:30pm 19.5 16.5 12.0 62 4.2 S 19 24 10 13 1016.5 1016.4 0.0
21/01:00pm 19.7 17.6 12.5 63 4.0 S 15 19 8 10 1017.0 1016.9 0.0
21/12:30pm 19.7 18.5 12.9 65 3.8 S 11 15 6 8 1017.3 1017.2 0.0
21/12:00pm 19.6 17.4 12.1 62 4.2 S 15 19 8 10 1017.8 1017.7 0.0
21/11:30am 19.5 18.1 11.0 58 4.6 SSW 9 13 5 7 1018.2 1018.1 0.0
21/11:00am 19.8 19.5 12.6 63 4.0 SW 6 13 3 7 1018.5 1018.4 0.0
21/10:30am 19.0 18.3 12.0 64 3.9 WSW 7 13 4 7 1018.6 1018.5 0.0
21/10:00am 18.6 17.7 12.6 68 3.3 WSW 9 17 5 9 1018.7 1018.6 0.0
21/09:30am 18.1 18.0 13.2 73 2.8 WNW 6 13 3 7 1018.8 1018.7 0.0
21/09:00am 17.6 17.6 13.5 77 2.3 W 6 13 3 7 1018.7 1018.6 3.0
21/08:30am 16.9 16.9 13.6 81 1.9 WNW 6 11 3 6 1018.4 1018.3 3.0
21/08:00am 15.8 15.8 14.2 90 0.9 NW 7 11 4 6 1018.3 1018.2 3.0
21/07:30am 15.1 14.4 13.3 89 1.0 W 9 13 5 7 1017.8 1017.7 3.0
21/07:00am 15.3 14.6 13.2 87 1.2 W 9 13 5 7 1017.4 1017.3 3.0
21/06:30am 15.5 15.2 13.3 87 1.2 W 7 11 4 6 1017.1 1017.0 3.0
21/06:00am 15.6 15.8 13.1 85 1.4 WNW 4 6 2 3 1017.1 1017.0 3.0
21/05:30am 16.0 16.3 13.3 84 1.5 WNW 4 9 2 5 1017.3 1017.2 3.0
21/05:00am 16.2 15.7 12.6 79 2.0 W 7 9 4 5 1016.9 1016.8 3.0
21/04:30am 16.0 15.5 12.7 81 1.8 W 7 11 4 6 1016.4 1016.3 3.0
21/04:00am 16.0 16.2 13.1 83 1.6 SW 4 7 2 4 1016.3 1016.2 3.0
21/03:30am 15.7 15.3 13.0 84 1.5 WSW 7 13 4 7 1016.2 1016.1 3.0
21/03:00am 15.7 14.9 13.0 84 1.5 WNW 9 17 5 9 1016.5 1016.4 3.0
21/02:30am 15.4 14.9 13.9 91 0.8 NW 9 13 5 7 1016.8 1016.7 3.0
21/02:00am 15.3 14.4 13.8 91 0.8 NW 11 17 6 9 1016.6 1016.5 3.0
21/01:30am 15.3 14.4 13.8 91 0.8 NW 11 19 6 10 1016.8 1016.7 3.0
21/01:00am 15.4 13.9 14.3 93 0.6 NW 15 20 8 11 1016.6 1016.5 3.0
21/12:30am 15.5 13.7 14.4 93 0.6 NW 17 24 9 13 1017.0 1016.9 3.0
21/12:00am 15.7 14.6 14.2 91 0.8 NW 13 20 7 11 1016.9 1016.8 3.0
 
Date/Time
EST
Tmp

°C
App
Tmp
°C
Dew
Point
°C
Rel
Hum
%
Delta-T

°C
Wind Press
QNH
hPa
Press
MSL
hPa
Rain
since
9 am
mm
Dir
 
Spd
km/h
Gust
km/h
Spd
kts
Gust
kts
20/11:30pm 16.1 14.2 14.1 88 1.1 NW 17 24 9 13 1017.0 1016.9 2.8
20/11:00pm 17.0 16.7 15.5 91 0.9 NW 11 20 6 11 1017.4 1017.3 2.0
20/10:30pm 17.0 15.8 14.1 83 1.7 WNW 13 24 7 13 1017.6 1017.5 1.6
20/10:00pm 18.1 18.0 16.1 88 1.2 W 11 22 6 12 1017.7 1017.6 0.6
20/09:30pm 19.1 20.0 16.1 83 1.8 WNW 6 11 3 6 1016.7 1016.6 0.0
20/09:00pm 19.0 19.8 15.9 82 1.8 WNW 6 9 3 5 1016.4 1016.3 0.0
20/08:30pm 19.3 20.1 15.8 80 2.1 WNW 6 11 3 6 1016.0 1015.9 0.0
20/08:00pm 19.1 20.0 16.0 82 1.8 WNW 6 9 3 5 1015.7 1015.6 0.0
20/07:30pm 19.3 20.3 16.3 83 1.8 WNW 6 9 3 5 1015.6 1015.5 0.0
20/07:00pm 19.7 20.3 16.7 83 1.8 NW 9 19 5 10 1014.9 1014.8 0.0
20/06:30pm 19.8 19.0 17.0 84 1.7 NNW 17 20 9 11 1014.6 1014.5 0.0
20/06:00pm 19.8 20.2 17.2 85 1.6 N 11 13 6 7 1014.4 1014.3 0.0
20/05:30pm 19.7 20.3 16.7 83 1.8 NNW 9 11 5 6 1014.5 1014.4 0.0
20/05:00pm 20.1 19.7 16.1 78 2.4 NNW 13 17 7 9 1014.2 1014.1 0.0
20/04:30pm 20.8 21.0 15.8 73 3.0 NW 9 15 5 8 1014.1 1014.0 0.0
20/04:00pm 21.5 22.2 15.6 69 3.5 NW 6 9 3 5 1013.9 1013.8 0.0

Latest Capital City Observations: Canberra | Sydney | Melbourne | Brisbane | Adelaide | Perth | Hobart | Darwin

Other Formats:

Comma delimited format used in spreadsheet applications
http://www.bom.gov.au/fwo/IDN60901/IDN60901.95770.axf

JavaScript Object Notation format (JSON) in row-major order
http://www.bom.gov.au/fwo/IDN60901/IDN60901.95770.json